sensor_id;sensor_type;location;lat;lon;timestamp;P1;durP1;ratioP1;P2;durP2;ratioP2
16504;SDS011;8365;51.030;4.696;2023-04-25T00:01:26;12.57;;;7.00;;
16504;SDS011;8365;51.030;4.696;2023-04-25T00:03:56;11.23;;;6.53;;
16504;SDS011;8365;51.030;4.696;2023-04-25T00:06:27;14.73;;;6.93;;
16504;SDS011;8365;51.030;4.696;2023-04-25T00:08:57;12.57;;;6.70;;
16504;SDS011;8365;51.030;4.696;2023-04-25T00:11:28;12.60;;;6.47;;
16504;SDS011;8365;51.030;4.696;2023-04-25T00:13:59;11.00;;;5.77;;
16504;SDS011;8365;51.030;4.696;2023-04-25T00:16:32;13.23;;;6.47;;
16504;SDS011;8365;51.030;4.696;2023-04-25T00:19:04;12.80;;;6.37;;
16504;SDS011;8365;51.030;4.696;2023-04-25T00:21:35;14.93;;;6.23;;
16504;SDS011;8365;51.030;4.696;2023-04-25T00:24:07;11.03;;;7.00;;
16504;SDS011;8365;51.030;4.696;2023-04-25T00:26:38;13.80;;;5.80;;
16504;SDS011;8365;51.030;4.696;2023-04-25T00:29:08;14.50;;;6.37;;
16504;SDS011;8365;51.030;4.696;2023-04-25T00:31:39;10.90;;;5.87;;
16504;SDS011;8365;51.030;4.696;2023-04-25T00:34:09;16.77;;;6.63;;
16504;SDS011;8365;51.030;4.696;2023-04-25T00:36:42;11.57;;;6.10;;
16504;SDS011;8365;51.030;4.696;2023-04-25T00:39:13;11.17;;;6.17;;
16504;SDS011;8365;51.030;4.696;2023-04-25T00:41:43;15.37;;;6.63;;
16504;SDS011;8365;51.030;4.696;2023-04-25T00:44:15;11.57;;;6.00;;
16504;SDS011;8365;51.030;4.696;2023-04-25T00:46:48;15.53;;;6.47;;
16504;SDS011;8365;51.030;4.696;2023-04-25T00:49:19;14.50;;;7.20;;
16504;SDS011;8365;51.030;4.696;2023-04-25T00:51:49;14.47;;;7.23;;
16504;SDS011;8365;51.030;4.696;2023-04-25T00:54:20;12.43;;;6.90;;
16504;SDS011;8365;51.030;4.696;2023-04-25T00:56:51;14.93;;;7.63;;
16504;SDS011;8365;51.030;4.696;2023-04-25T00:59:21;11.83;;;6.53;;
16504;SDS011;8365;51.030;4.696;2023-04-25T01:01:52;15.43;;;6.47;;
16504;SDS011;8365;51.030;4.696;2023-04-25T01:04:22;14.93;;;7.20;;
16504;SDS011;8365;51.030;4.696;2023-04-25T01:06:53;10.97;;;6.97;;
16504;SDS011;8365;51.030;4.696;2023-04-25T01:09:23;15.57;;;6.83;;
16504;SDS011;8365;51.030;4.696;2023-04-25T01:11:54;17.03;;;6.73;;
16504;SDS011;8365;51.030;4.696;2023-04-25T01:14:25;17.67;;;6.57;;
16504;SDS011;8365;51.030;4.696;2023-04-25T01:16:55;14.97;;;6.50;;
16504;SDS011;8365;51.030;4.696;2023-04-25T01:19:25;10.70;;;6.87;;
16504;SDS011;8365;51.030;4.696;2023-04-25T01:21:56;18.93;;;7.53;;
16504;SDS011;8365;51.030;4.696;2023-04-25T01:24:27;12.17;;;6.83;;
16504;SDS011;8365;51.030;4.696;2023-04-25T01:26:58;15.13;;;6.40;;
16504;SDS011;8365;51.030;4.696;2023-04-25T01:29:30;12.73;;;6.43;;
16504;SDS011;8365;51.030;4.696;2023-04-25T01:32:01;14.27;;;6.70;;
16504;SDS011;8365;51.030;4.696;2023-04-25T01:34:34;15.87;;;6.63;;
16504;SDS011;8365;51.030;4.696;2023-04-25T01:37:04;14.10;;;6.33;;
16504;SDS011;8365;51.030;4.696;2023-04-25T01:39:34;14.43;;;6.33;;
16504;SDS011;8365;51.030;4.696;2023-04-25T01:42:07;13.60;;;6.27;;
16504;SDS011;8365;51.030;4.696;2023-04-25T01:44:38;15.67;;;7.10;;
16504;SDS011;8365;51.030;4.696;2023-04-25T01:47:08;12.37;;;5.60;;
16504;SDS011;8365;51.030;4.696;2023-04-25T01:49:38;12.80;;;5.23;;
16504;SDS011;8365;51.030;4.696;2023-04-25T01:52:09;13.43;;;5.73;;
16504;SDS011;8365;51.030;4.696;2023-04-25T01:54:40;16.23;;;5.47;;
16504;SDS011;8365;51.030;4.696;2023-04-25T01:57:14;14.60;;;6.40;;
16504;SDS011;8365;51.030;4.696;2023-04-25T01:59:44;13.77;;;5.73;;
16504;SDS011;8365;51.030;4.696;2023-04-25T02:02:18;12.70;;;6.33;;
16504;SDS011;8365;51.030;4.696;2023-04-25T02:04:48;11.53;;;5.77;;
16504;SDS011;8365;51.030;4.696;2023-04-25T02:07:19;12.53;;;5.67;;
16504;SDS011;8365;51.030;4.696;2023-04-25T02:09:49;9.20;;;5.53;;
16504;SDS011;8365;51.030;4.696;2023-04-25T02:12:20;21.73;;;6.40;;
16504;SDS011;8365;51.030;4.696;2023-04-25T02:14:50;14.30;;;5.10;;
16504;SDS011;8365;51.030;4.696;2023-04-25T02:17:21;11.57;;;5.80;;
16504;SDS011;8365;51.030;4.696;2023-04-25T02:19:51;12.60;;;6.77;;
16504;SDS011;8365;51.030;4.696;2023-04-25T02:22:22;14.50;;;5.70;;
16504;SDS011;8365;51.030;4.696;2023-04-25T02:24:53;15.53;;;5.30;;
16504;SDS011;8365;51.030;4.696;2023-04-25T02:27:25;15.97;;;5.67;;
16504;SDS011;8365;51.030;4.696;2023-04-25T02:29:56;19.50;;;5.60;;
16504;SDS011;8365;51.030;4.696;2023-04-25T02:32:26;14.70;;;5.53;;
16504;SDS011;8365;51.030;4.696;2023-04-25T02:34:57;12.10;;;5.20;;
16504;SDS011;8365;51.030;4.696;2023-04-25T02:37:33;11.57;;;5.20;;
16504;SDS011;8365;51.030;4.696;2023-04-25T02:40:05;13.00;;;5.97;;
16504;SDS011;8365;51.030;4.696;2023-04-25T02:42:36;15.97;;;5.50;;
16504;SDS011;8365;51.030;4.696;2023-04-25T02:45:07;11.67;;;5.53;;
16504;SDS011;8365;51.030;4.696;2023-04-25T02:47:40;13.80;;;6.03;;
16504;SDS011;8365;51.030;4.696;2023-04-25T02:50:11;13.10;;;5.90;;
16504;SDS011;8365;51.030;4.696;2023-04-25T02:52:41;14.73;;;6.23;;
16504;SDS011;8365;51.030;4.696;2023-04-25T02:55:12;12.70;;;5.90;;
16504;SDS011;8365;51.030;4.696;2023-04-25T02:57:45;16.70;;;5.80;;
16504;SDS011;8365;51.030;4.696;2023-04-25T03:00:16;13.03;;;5.70;;
16504;SDS011;8365;51.030;4.696;2023-04-25T03:02:46;16.30;;;5.70;;
16504;SDS011;8365;51.030;4.696;2023-04-25T03:05:17;16.40;;;5.90;;
16504;SDS011;8365;51.030;4.696;2023-04-25T03:07:50;17.80;;;5.60;;
16504;SDS011;8365;51.030;4.696;2023-04-25T03:10:21;12.47;;;5.80;;
16504;SDS011;8365;51.030;4.696;2023-04-25T03:12:51;15.00;;;6.43;;
16504;SDS011;8365;51.030;4.696;2023-04-25T03:15:22;14.30;;;5.70;;
16504;SDS011;8365;51.030;4.696;2023-04-25T03:17:55;15.40;;;6.43;;
16504;SDS011;8365;51.030;4.696;2023-04-25T03:20:25;19.40;;;6.67;;
16504;SDS011;8365;51.030;4.696;2023-04-25T03:22:56;13.33;;;6.37;;
16504;SDS011;8365;51.030;4.696;2023-04-25T03:25:26;18.30;;;6.30;;
16504;SDS011;8365;51.030;4.696;2023-04-25T03:27:57;14.93;;;5.87;;
16504;SDS011;8365;51.030;4.696;2023-04-25T03:30:29;14.90;;;5.60;;
16504;SDS011;8365;51.030;4.696;2023-04-25T03:33:00;13.50;;;5.57;;
16504;SDS011;8365;51.030;4.696;2023-04-25T03:35:30;11.73;;;5.30;;
16504;SDS011;8365;51.030;4.696;2023-04-25T03:38:01;12.37;;;5.13;;
16504;SDS011;8365;51.030;4.696;2023-04-25T03:40:31;12.50;;;5.57;;
16504;SDS011;8365;51.030;4.696;2023-04-25T03:43:02;11.30;;;5.87;;
16504;SDS011;8365;51.030;4.696;2023-04-25T03:45:32;18.93;;;6.07;;
16504;SDS011;8365;51.030;4.696;2023-04-25T03:48:03;13.70;;;6.47;;
16504;SDS011;8365;51.030;4.696;2023-04-25T03:50:33;14.43;;;6.10;;
16504;SDS011;8365;51.030;4.696;2023-04-25T03:53:04;15.43;;;6.13;;
16504;SDS011;8365;51.030;4.696;2023-04-25T03:55:34;13.37;;;5.97;;
16504;SDS011;8365;51.030;4.696;2023-04-25T03:58:05;13.30;;;6.07;;
16504;SDS011;8365;51.030;4.696;2023-04-25T04:00:35;12.90;;;5.60;;
16504;SDS011;8365;51.030;4.696;2023-04-25T04:03:06;11.10;;;5.07;;
16504;SDS011;8365;51.030;4.696;2023-04-25T04:05:37;14.00;;;5.87;;
16504;SDS011;8365;51.030;4.696;2023-04-25T04:08:10;14.80;;;5.70;;
16504;SDS011;8365;51.030;4.696;2023-04-25T04:10:40;13.93;;;5.33;;
16504;SDS011;8365;51.030;4.696;2023-04-25T04:13:11;16.73;;;6.20;;
16504;SDS011;8365;51.030;4.696;2023-04-25T04:15:41;13.50;;;6.87;;
16504;SDS011;8365;51.030;4.696;2023-04-25T04:18:12;15.07;;;6.33;;
16504;SDS011;8365;51.030;4.696;2023-04-25T04:20:42;14.40;;;6.00;;
16504;SDS011;8365;51.030;4.696;2023-04-25T04:23:13;17.03;;;6.27;;
16504;SDS011;8365;51.030;4.696;2023-04-25T04:25:43;12.33;;;6.20;;
16504;SDS011;8365;51.030;4.696;2023-04-25T04:28:14;14.90;;;6.30;;
16504;SDS011;8365;51.030;4.696;2023-04-25T04:30:46;13.70;;;5.90;;
16504;SDS011;8365;51.030;4.696;2023-04-25T04:33:16;14.10;;;5.97;;
16504;SDS011;8365;51.030;4.696;2023-04-25T04:35:50;19.50;;;6.90;;
16504;SDS011;8365;51.030;4.696;2023-04-25T04:38:22;13.90;;;6.63;;
16504;SDS011;8365;51.030;4.696;2023-04-25T04:40:52;12.60;;;6.10;;
16504;SDS011;8365;51.030;4.696;2023-04-25T04:43:25;15.00;;;5.60;;
16504;SDS011;8365;51.030;4.696;2023-04-25T04:45:56;11.80;;;5.73;;
16504;SDS011;8365;51.030;4.696;2023-04-25T04:48:26;10.13;;;6.17;;
16504;SDS011;8365;51.030;4.696;2023-04-25T04:50:58;11.47;;;5.83;;
16504;SDS011;8365;51.030;4.696;2023-04-25T04:53:28;13.93;;;6.10;;
16504;SDS011;8365;51.030;4.696;2023-04-25T04:55:59;11.80;;;6.03;;
16504;SDS011;8365;51.030;4.696;2023-04-25T04:58:30;14.23;;;6.30;;
16504;SDS011;8365;51.030;4.696;2023-04-25T05:01:00;15.47;;;6.47;;
16504;SDS011;8365;51.030;4.696;2023-04-25T05:03:31;13.53;;;6.37;;
16504;SDS011;8365;51.030;4.696;2023-04-25T05:06:01;14.77;;;6.67;;
16504;SDS011;8365;51.030;4.696;2023-04-25T05:08:32;12.60;;;6.27;;
16504;SDS011;8365;51.030;4.696;2023-04-25T05:11:02;16.33;;;6.30;;
16504;SDS011;8365;51.030;4.696;2023-04-25T05:13:33;21.93;;;7.33;;
16504;SDS011;8365;51.030;4.696;2023-04-25T05:16:03;19.20;;;6.60;;
16504;SDS011;8365;51.030;4.696;2023-04-25T05:18:36;15.80;;;6.47;;
16504;SDS011;8365;51.030;4.696;2023-04-25T05:21:07;11.93;;;6.10;;
16504;SDS011;8365;51.030;4.696;2023-04-25T05:23:37;15.57;;;7.03;;
16504;SDS011;8365;51.030;4.696;2023-04-25T05:26:09;16.90;;;7.37;;
16504;SDS011;8365;51.030;4.696;2023-04-25T05:28:43;14.93;;;6.37;;
16504;SDS011;8365;51.030;4.696;2023-04-25T05:31:14;18.57;;;7.27;;
16504;SDS011;8365;51.030;4.696;2023-04-25T05:33:46;21.17;;;8.20;;
16504;SDS011;8365;51.030;4.696;2023-04-25T05:36:20;13.70;;;6.83;;
16504;SDS011;8365;51.030;4.696;2023-04-25T05:38:51;21.03;;;7.67;;
16504;SDS011;8365;51.030;4.696;2023-04-25T05:41:24;14.93;;;6.67;;
16504;SDS011;8365;51.030;4.696;2023-04-25T05:43:54;19.73;;;9.33;;
16504;SDS011;8365;51.030;4.696;2023-04-25T05:46:25;17.13;;;8.40;;
16504;SDS011;8365;51.030;4.696;2023-04-25T05:48:55;22.93;;;9.67;;
16504;SDS011;8365;51.030;4.696;2023-04-25T05:51:25;21.37;;;10.13;;
16504;SDS011;8365;51.030;4.696;2023-04-25T05:53:59;22.47;;;10.90;;
16504;SDS011;8365;51.030;4.696;2023-04-25T05:56:30;23.67;;;10.97;;
16504;SDS011;8365;51.030;4.696;2023-04-25T05:59:02;24.20;;;9.40;;
16504;SDS011;8365;51.030;4.696;2023-04-25T06:01:33;15.33;;;7.57;;
16504;SDS011;8365;51.030;4.696;2023-04-25T06:04:03;19.87;;;7.13;;
16504;SDS011;8365;51.030;4.696;2023-04-25T06:06:34;16.20;;;7.37;;
16504;SDS011;8365;51.030;4.696;2023-04-25T06:09:04;13.73;;;6.67;;
16504;SDS011;8365;51.030;4.696;2023-04-25T06:11:35;13.60;;;7.17;;
16504;SDS011;8365;51.030;4.696;2023-04-25T06:14:05;13.70;;;6.23;;
16504;SDS011;8365;51.030;4.696;2023-04-25T06:16:36;14.43;;;5.87;;
16504;SDS011;8365;51.030;4.696;2023-04-25T06:19:07;13.20;;;6.10;;
16504;SDS011;8365;51.030;4.696;2023-04-25T06:21:37;13.87;;;6.17;;
16504;SDS011;8365;51.030;4.696;2023-04-25T06:24:08;10.93;;;6.07;;
16504;SDS011;8365;51.030;4.696;2023-04-25T06:26:38;18.93;;;7.40;;
16504;SDS011;8365;51.030;4.696;2023-04-25T06:29:09;17.50;;;8.03;;
16504;SDS011;8365;51.030;4.696;2023-04-25T06:31:39;16.33;;;8.03;;
16504;SDS011;8365;51.030;4.696;2023-04-25T06:34:12;18.83;;;8.13;;
16504;SDS011;8365;51.030;4.696;2023-04-25T06:36:42;15.67;;;6.23;;
16504;SDS011;8365;51.030;4.696;2023-04-25T06:39:14;15.13;;;6.23;;
16504;SDS011;8365;51.030;4.696;2023-04-25T06:41:44;16.50;;;6.53;;
16504;SDS011;8365;51.030;4.696;2023-04-25T06:44:15;12.27;;;5.33;;
16504;SDS011;8365;51.030;4.696;2023-04-25T06:46:45;12.00;;;5.40;;
16504;SDS011;8365;51.030;4.696;2023-04-25T06:49:16;10.37;;;4.90;;
16504;SDS011;8365;51.030;4.696;2023-04-25T06:51:46;10.93;;;5.80;;
16504;SDS011;8365;51.030;4.696;2023-04-25T06:54:16;15.33;;;6.00;;
16504;SDS011;8365;51.030;4.696;2023-04-25T06:56:47;15.93;;;5.60;;
16504;SDS011;8365;51.030;4.696;2023-04-25T06:59:18;9.77;;;5.23;;
16504;SDS011;8365;51.030;4.696;2023-04-25T07:01:50;15.57;;;5.03;;
16504;SDS011;8365;51.030;4.696;2023-04-25T07:04:21;11.90;;;5.47;;
16504;SDS011;8365;51.030;4.696;2023-04-25T07:06:51;12.27;;;5.13;;
16504;SDS011;8365;51.030;4.696;2023-04-25T07:09:22;12.37;;;5.17;;
16504;SDS011;8365;51.030;4.696;2023-04-25T07:11:52;11.87;;;5.17;;
16504;SDS011;8365;51.030;4.696;2023-04-25T07:14:26;14.07;;;5.63;;
16504;SDS011;8365;51.030;4.696;2023-04-25T07:16:59;10.93;;;4.60;;
16504;SDS011;8365;51.030;4.696;2023-04-25T07:19:30;13.03;;;4.80;;
16504;SDS011;8365;51.030;4.696;2023-04-25T07:22:00;11.80;;;4.80;;
16504;SDS011;8365;51.030;4.696;2023-04-25T07:24:31;10.97;;;4.73;;
16504;SDS011;8365;51.030;4.696;2023-04-25T07:27:01;16.20;;;4.43;;
16504;SDS011;8365;51.030;4.696;2023-04-25T07:29:32;13.90;;;4.60;;
16504;SDS011;8365;51.030;4.696;2023-04-25T07:32:06;11.27;;;4.57;;
16504;SDS011;8365;51.030;4.696;2023-04-25T07:34:37;10.07;;;4.47;;
16504;SDS011;8365;51.030;4.696;2023-04-25T07:37:08;8.47;;;4.60;;
16504;SDS011;8365;51.030;4.696;2023-04-25T07:39:39;12.03;;;5.07;;
16504;SDS011;8365;51.030;4.696;2023-04-25T07:42:10;11.97;;;4.40;;
16504;SDS011;8365;51.030;4.696;2023-04-25T07:44:40;10.50;;;4.47;;
16504;SDS011;8365;51.030;4.696;2023-04-25T07:47:12;8.73;;;4.03;;
16504;SDS011;8365;51.030;4.696;2023-04-25T07:49:43;8.97;;;4.03;;
16504;SDS011;8365;51.030;4.696;2023-04-25T07:52:14;11.80;;;4.23;;
16504;SDS011;8365;51.030;4.696;2023-04-25T07:54:44;9.57;;;4.10;;
16504;SDS011;8365;51.030;4.696;2023-04-25T07:57:17;7.47;;;3.57;;
16504;SDS011;8365;51.030;4.696;2023-04-25T07:59:49;12.67;;;3.87;;
16504;SDS011;8365;51.030;4.696;2023-04-25T08:02:19;8.37;;;3.77;;
16504;SDS011;8365;51.030;4.696;2023-04-25T08:04:50;7.70;;;3.67;;
16504;SDS011;8365;51.030;4.696;2023-04-25T08:07:20;10.23;;;4.10;;
16504;SDS011;8365;51.030;4.696;2023-04-25T08:09:51;8.37;;;3.97;;
16504;SDS011;8365;51.030;4.696;2023-04-25T08:12:22;7.97;;;3.20;;
16504;SDS011;8365;51.030;4.696;2023-04-25T08:14:55;9.40;;;4.03;;
16504;SDS011;8365;51.030;4.696;2023-04-25T08:17:25;8.27;;;3.50;;
16504;SDS011;8365;51.030;4.696;2023-04-25T08:19:55;7.50;;;3.90;;
16504;SDS011;8365;51.030;4.696;2023-04-25T08:22:29;10.27;;;3.43;;
16504;SDS011;8365;51.030;4.696;2023-04-25T08:25:04;8.20;;;3.90;;
16504;SDS011;8365;51.030;4.696;2023-04-25T08:27:34;7.20;;;3.60;;
16504;SDS011;8365;51.030;4.696;2023-04-25T08:30:05;11.63;;;3.70;;
16504;SDS011;8365;51.030;4.696;2023-04-25T08:32:38;8.77;;;3.37;;
16504;SDS011;8365;51.030;4.696;2023-04-25T08:35:09;6.77;;;3.50;;
16504;SDS011;8365;51.030;4.696;2023-04-25T08:37:39;9.97;;;3.43;;
16504;SDS011;8365;51.030;4.696;2023-04-25T08:40:11;7.07;;;3.23;;
16504;SDS011;8365;51.030;4.696;2023-04-25T08:42:45;9.80;;;3.33;;
16504;SDS011;8365;51.030;4.696;2023-04-25T08:45:18;8.80;;;3.80;;
16504;SDS011;8365;51.030;4.696;2023-04-25T08:47:51;6.63;;;3.43;;
16504;SDS011;8365;51.030;4.696;2023-04-25T08:50:23;9.87;;;4.00;;
16504;SDS011;8365;51.030;4.696;2023-04-25T08:52:56;10.10;;;3.43;;
16504;SDS011;8365;51.030;4.696;2023-04-25T08:55:31;9.43;;;3.83;;
16504;SDS011;8365;51.030;4.696;2023-04-25T08:58:02;9.73;;;3.83;;
16504;SDS011;8365;51.030;4.696;2023-04-25T09:00:32;10.70;;;3.50;;
16504;SDS011;8365;51.030;4.696;2023-04-25T09:03:03;7.23;;;3.70;;
16504;SDS011;8365;51.030;4.696;2023-04-25T09:05:33;6.40;;;3.00;;
16504;SDS011;8365;51.030;4.696;2023-04-25T09:08:05;9.53;;;3.30;;
16504;SDS011;8365;51.030;4.696;2023-04-25T09:10:36;6.67;;;3.27;;
16504;SDS011;8365;51.030;4.696;2023-04-25T09:13:08;10.30;;;3.47;;
16504;SDS011;8365;51.030;4.696;2023-04-25T09:15:52;8.13;;;3.03;;
16504;SDS011;8365;51.030;4.696;2023-04-25T09:18:28;5.63;;;3.07;;
16504;SDS011;8365;51.030;4.696;2023-04-25T09:21:07;5.27;;;2.80;;
16504;SDS011;8365;51.030;4.696;2023-04-25T09:23:47;8.00;;;2.97;;
16504;SDS011;8365;51.030;4.696;2023-04-25T09:26:22;6.30;;;2.83;;
16504;SDS011;8365;51.030;4.696;2023-04-25T09:29:08;4.97;;;2.77;;
16504;SDS011;8365;51.030;4.696;2023-04-25T09:31:38;5.03;;;2.97;;
16504;SDS011;8365;51.030;4.696;2023-04-25T09:34:09;8.30;;;2.90;;
16504;SDS011;8365;51.030;4.696;2023-04-25T09:36:45;4.17;;;2.93;;
16504;SDS011;8365;51.030;4.696;2023-04-25T09:39:16;5.07;;;2.57;;
16504;SDS011;8365;51.030;4.696;2023-04-25T09:41:53;4.60;;;2.80;;
16504;SDS011;8365;51.030;4.696;2023-04-25T09:44:23;5.90;;;2.40;;
16504;SDS011;8365;51.030;4.696;2023-04-25T09:46:54;2.70;;;2.20;;
16504;SDS011;8365;51.030;4.696;2023-04-25T09:49:25;5.43;;;2.80;;
16504;SDS011;8365;51.030;4.696;2023-04-25T09:51:57;3.80;;;2.23;;
16504;SDS011;8365;51.030;4.696;2023-04-25T09:54:29;4.20;;;2.40;;
16504;SDS011;8365;51.030;4.696;2023-04-25T09:57:06;5.00;;;2.23;;
16504;SDS011;8365;51.030;4.696;2023-04-25T10:02:22;5.68;;;2.70;;
16504;SDS011;8365;51.030;4.696;2023-04-25T10:04:55;4.53;;;2.40;;
16504;SDS011;8365;51.030;4.696;2023-04-25T10:07:28;5.80;;;2.33;;
16504;SDS011;8365;51.030;4.696;2023-04-25T10:10:00;4.07;;;2.38;;
16504;SDS011;8365;51.030;4.696;2023-04-25T10:12:33;5.32;;;2.40;;
16504;SDS011;8365;51.030;4.696;2023-04-25T10:15:04;3.25;;;2.17;;
16504;SDS011;8365;51.030;4.696;2023-04-25T10:17:35;3.40;;;1.75;;
16504;SDS011;8365;51.030;4.696;2023-04-25T10:20:06;4.72;;;1.90;;
16504;SDS011;8365;51.030;4.696;2023-04-25T10:22:46;5.03;;;2.00;;
16504;SDS011;8365;51.030;4.696;2023-04-25T10:25:24;2.13;;;1.80;;
16504;SDS011;8365;51.030;4.696;2023-04-25T10:27:54;3.67;;;1.85;;
16504;SDS011;8365;51.030;4.696;2023-04-25T10:30:25;5.05;;;2.40;;
16504;SDS011;8365;51.030;4.696;2023-04-25T10:32:55;7.68;;;2.30;;
16504;SDS011;8365;51.030;4.696;2023-04-25T10:35:27;3.42;;;2.08;;
16504;SDS011;8365;51.030;4.696;2023-04-25T10:38:03;5.82;;;2.42;;
16504;SDS011;8365;51.030;4.696;2023-04-25T10:40:36;5.03;;;2.30;;
16504;SDS011;8365;51.030;4.696;2023-04-25T10:48:48;4.83;;;2.60;;
16504;SDS011;8365;51.030;4.696;2023-04-25T10:51:25;5.23;;;2.53;;
16504;SDS011;8365;51.030;4.696;2023-04-25T10:54:00;5.80;;;2.30;;
16504;SDS011;8365;51.030;4.696;2023-04-25T10:56:38;3.60;;;2.27;;
16504;SDS011;8365;51.030;4.696;2023-04-25T10:59:16;4.63;;;2.20;;
16504;SDS011;8365;51.030;4.696;2023-04-25T11:01:51;5.27;;;2.30;;
16504;SDS011;8365;51.030;4.696;2023-04-25T11:04:31;3.93;;;1.90;;
16504;SDS011;8365;51.030;4.696;2023-04-25T11:10:07;5.73;;;2.37;;
16504;SDS011;8365;51.030;4.696;2023-04-25T11:12:37;6.23;;;2.73;;
16504;SDS011;8365;51.030;4.696;2023-04-25T11:15:08;4.20;;;2.20;;
16504;SDS011;8365;51.030;4.696;2023-04-25T11:17:39;5.73;;;2.43;;
16504;SDS011;8365;51.030;4.696;2023-04-25T11:20:10;5.93;;;2.67;;
16504;SDS011;8365;51.030;4.696;2023-04-25T11:22:41;4.90;;;2.60;;
16504;SDS011;8365;51.030;4.696;2023-04-25T11:25:15;4.20;;;2.83;;
16504;SDS011;8365;51.030;4.696;2023-04-25T11:27:50;6.67;;;2.63;;
16504;SDS011;8365;51.030;4.696;2023-04-25T11:30:28;2.77;;;2.17;;
16504;SDS011;8365;51.030;4.696;2023-04-25T11:33:00;5.67;;;2.47;;
16504;SDS011;8365;51.030;4.696;2023-04-25T11:35:35;4.67;;;2.53;;
16504;SDS011;8365;51.030;4.696;2023-04-25T11:38:05;5.27;;;2.03;;
16504;SDS011;8365;51.030;4.696;2023-04-25T11:40:36;5.70;;;2.40;;
16504;SDS011;8365;51.030;4.696;2023-04-25T11:43:06;4.60;;;2.20;;
16504;SDS011;8365;51.030;4.696;2023-04-25T11:45:39;3.87;;;2.07;;
16504;SDS011;8365;51.030;4.696;2023-04-25T11:48:09;4.13;;;2.10;;
16504;SDS011;8365;51.030;4.696;2023-04-25T11:50:39;3.40;;;2.03;;
16504;SDS011;8365;51.030;4.696;2023-04-25T11:53:10;4.30;;;2.10;;
16504;SDS011;8365;51.030;4.696;2023-04-25T11:55:41;4.85;;;2.20;;
16504;SDS011;8365;51.030;4.696;2023-04-25T11:58:11;4.13;;;2.08;;
16504;SDS011;8365;51.030;4.696;2023-04-25T12:00:43;5.03;;;1.90;;
16504;SDS011;8365;51.030;4.696;2023-04-25T12:03:14;6.43;;;2.35;;
16504;SDS011;8365;51.030;4.696;2023-04-25T12:05:44;4.70;;;2.08;;
16504;SDS011;8365;51.030;4.696;2023-04-25T12:08:16;3.88;;;1.98;;
16504;SDS011;8365;51.030;4.696;2023-04-25T12:10:46;4.68;;;2.20;;
16504;SDS011;8365;51.030;4.696;2023-04-25T12:15:50;3.83;;;2.13;;
16504;SDS011;8365;51.030;4.696;2023-04-25T12:18:22;3.83;;;2.00;;
16504;SDS011;8365;51.030;4.696;2023-04-25T12:20:53;2.50;;;1.80;;
16504;SDS011;8365;51.030;4.696;2023-04-25T12:23:25;5.18;;;1.85;;
16504;SDS011;8365;51.030;4.696;2023-04-25T12:25:57;3.38;;;1.67;;
16504;SDS011;8365;51.030;4.696;2023-04-25T12:28:27;1.98;;;1.63;;
16504;SDS011;8365;51.030;4.696;2023-04-25T12:33:35;3.03;;;1.53;;
16504;SDS011;8365;51.030;4.696;2023-04-25T12:36:06;4.13;;;1.90;;
16504;SDS011;8365;51.030;4.696;2023-04-25T12:38:42;3.27;;;1.80;;
16504;SDS011;8365;51.030;4.696;2023-04-25T12:41:12;5.32;;;1.90;;
16504;SDS011;8365;51.030;4.696;2023-04-25T12:43:43;2.45;;;1.50;;
16504;SDS011;8365;51.030;4.696;2023-04-25T12:46:13;4.47;;;1.73;;
16504;SDS011;8365;51.030;4.696;2023-04-25T12:48:44;3.67;;;1.60;;
16504;SDS011;8365;51.030;4.696;2023-04-25T12:51:14;4.85;;;2.00;;
16504;SDS011;8365;51.030;4.696;2023-04-25T12:53:45;2.83;;;1.97;;
16504;SDS011;8365;51.030;4.696;2023-04-25T12:56:15;4.07;;;1.73;;
16504;SDS011;8365;51.030;4.696;2023-04-25T12:58:46;2.67;;;1.73;;
16504;SDS011;8365;51.030;4.696;2023-04-25T13:01:18;3.20;;;1.60;;
16504;SDS011;8365;51.030;4.696;2023-04-25T13:03:49;3.90;;;1.87;;
16504;SDS011;8365;51.030;4.696;2023-04-25T13:06:19;4.03;;;1.90;;
16504;SDS011;8365;51.030;4.696;2023-04-25T13:08:50;3.90;;;1.95;;
16504;SDS011;8365;51.030;4.696;2023-04-25T13:11:21;2.70;;;1.40;;
16504;SDS011;8365;51.030;4.696;2023-04-25T13:13:51;2.85;;;1.92;;
16504;SDS011;8365;51.030;4.696;2023-04-25T13:16:22;2.53;;;1.58;;
16504;SDS011;8365;51.030;4.696;2023-04-25T13:18:52;3.03;;;1.52;;
16504;SDS011;8365;51.030;4.696;2023-04-25T13:21:26;2.80;;;1.60;;
16504;SDS011;8365;51.030;4.696;2023-04-25T13:23:56;4.03;;;1.50;;
16504;SDS011;8365;51.030;4.696;2023-04-25T13:26:27;3.15;;;1.77;;
16504;SDS011;8365;51.030;4.696;2023-04-25T13:28:58;4.22;;;1.73;;
16504;SDS011;8365;51.030;4.696;2023-04-25T13:31:30;2.63;;;1.67;;
16504;SDS011;8365;51.030;4.696;2023-04-25T13:34:01;3.38;;;1.90;;
16504;SDS011;8365;51.030;4.696;2023-04-25T13:36:31;3.15;;;1.70;;
16504;SDS011;8365;51.030;4.696;2023-04-25T13:39:02;4.13;;;1.95;;
16504;SDS011;8365;51.030;4.696;2023-04-25T13:41:34;5.75;;;2.20;;
16504;SDS011;8365;51.030;4.696;2023-04-25T13:44:05;2.08;;;1.73;;
16504;SDS011;8365;51.030;4.696;2023-04-25T13:46:35;4.32;;;1.70;;
16504;SDS011;8365;51.030;4.696;2023-04-25T13:49:08;2.92;;;1.55;;
16504;SDS011;8365;51.030;4.696;2023-04-25T13:51:39;3.10;;;1.83;;
16504;SDS011;8365;51.030;4.696;2023-04-25T13:54:10;5.07;;;1.77;;
16504;SDS011;8365;51.030;4.696;2023-04-25T13:56:41;4.72;;;1.70;;
16504;SDS011;8365;51.030;4.696;2023-04-25T13:59:12;3.45;;;1.77;;
16504;SDS011;8365;51.030;4.696;2023-04-25T14:01:42;4.30;;;1.83;;
16504;SDS011;8365;51.030;4.696;2023-04-25T14:04:12;2.77;;;1.50;;
16504;SDS011;8365;51.030;4.696;2023-04-25T14:06:43;4.70;;;2.00;;
16504;SDS011;8365;51.030;4.696;2023-04-25T14:09:14;3.13;;;1.63;;
16504;SDS011;8365;51.030;4.696;2023-04-25T14:11:45;4.70;;;1.83;;
16504;SDS011;8365;51.030;4.696;2023-04-25T14:14:15;5.50;;;2.00;;
16504;SDS011;8365;51.030;4.696;2023-04-25T14:16:46;2.97;;;1.80;;
16504;SDS011;8365;51.030;4.696;2023-04-25T14:19:21;4.05;;;1.73;;
16504;SDS011;8365;51.030;4.696;2023-04-25T14:21:51;3.40;;;1.90;;
16504;SDS011;8365;51.030;4.696;2023-04-25T14:24:24;3.47;;;1.73;;
16504;SDS011;8365;51.030;4.696;2023-04-25T14:26:55;5.32;;;1.80;;
16504;SDS011;8365;51.030;4.696;2023-04-25T14:29:28;2.67;;;1.70;;
16504;SDS011;8365;51.030;4.696;2023-04-25T14:31:59;3.97;;;1.80;;
16504;SDS011;8365;51.030;4.696;2023-04-25T14:34:29;5.13;;;2.00;;
16504;SDS011;8365;51.030;4.696;2023-04-25T14:37:00;3.30;;;1.60;;
16504;SDS011;8365;51.030;4.696;2023-04-25T14:39:30;4.03;;;1.70;;
16504;SDS011;8365;51.030;4.696;2023-04-25T14:42:01;4.43;;;1.70;;
16504;SDS011;8365;51.030;4.696;2023-04-25T14:44:34;4.20;;;1.73;;
16504;SDS011;8365;51.030;4.696;2023-04-25T14:47:04;2.83;;;1.60;;
16504;SDS011;8365;51.030;4.696;2023-04-25T14:49:35;3.45;;;1.80;;
16504;SDS011;8365;51.030;4.696;2023-04-25T14:52:05;3.08;;;1.55;;
16504;SDS011;8365;51.030;4.696;2023-04-25T14:54:36;4.03;;;1.65;;
16504;SDS011;8365;51.030;4.696;2023-04-25T14:57:06;2.83;;;1.58;;
16504;SDS011;8365;51.030;4.696;2023-04-25T14:59:37;9.70;;;4.45;;
16504;SDS011;8365;51.030;4.696;2023-04-25T15:02:08;5.30;;;2.03;;
16504;SDS011;8365;51.030;4.696;2023-04-25T15:04:39;3.45;;;1.63;;
16504;SDS011;8365;51.030;4.696;2023-04-25T15:07:09;3.60;;;1.58;;
16504;SDS011;8365;51.030;4.696;2023-04-25T15:09:40;3.03;;;1.80;;
16504;SDS011;8365;51.030;4.696;2023-04-25T15:12:10;3.10;;;1.60;;
16504;SDS011;8365;51.030;4.696;2023-04-25T15:14:42;3.60;;;1.65;;
16504;SDS011;8365;51.030;4.696;2023-04-25T15:17:12;5.47;;;2.00;;
16504;SDS011;8365;51.030;4.696;2023-04-25T15:19:44;3.80;;;1.90;;
16504;SDS011;8365;51.030;4.696;2023-04-25T15:22:14;3.72;;;1.63;;
16504;SDS011;8365;51.030;4.696;2023-04-25T15:24:45;5.25;;;2.08;;
16504;SDS011;8365;51.030;4.696;2023-04-25T15:27:16;3.80;;;1.80;;
16504;SDS011;8365;51.030;4.696;2023-04-25T15:29:47;3.47;;;1.70;;
16504;SDS011;8365;51.030;4.696;2023-04-25T15:32:17;2.85;;;1.73;;
16504;SDS011;8365;51.030;4.696;2023-04-25T15:34:48;5.97;;;2.08;;